Strona główna
METAR-TAF:

METAR-TAF

Lotnisko :

Pocono Mountains Municipal Airport

Mount Pocono, Pensylwania, Stany Zjednoczone

Szerokość geograficzna: 41-08-20N, Długość geograficzna: 075-23-46W, wysokość: 584 m

Aktualna obserwacja pogody

Raport powstał 1 godzina i 0 minut temu, godzina 02:53 UTC
Wiatr 5 kt od wschód
Temperatura 8°C
Wilgotność 76%
Ciśnienie 1009 hPa
Widzialność: 16.1 km
bezchmurnie

METAR: KMPO 120253Z AUTO 10005KT 10SM CLR 08/04 A2981 RMK AO2 SLP098 T00780039 58019 $

czas: 22:53 (03:53 UTC)


TAF: brakujący

Obserwacja i prognoza pogody dla ponad 4000 lotnisk (raport METAR i TAF).

Dostępne stacje oznaczono żółtymi i czerwonymi punktami na mapie.

Najedź kursorem aby zobaczyć nazwę stacji.

Kliknij aby zobaczyć obserwacje i prognozy pogody.

Aby zmienić mapę: kliknij na zielony przycisk z czarnym krzyżykiem, aby powiększyć; na zielony przycisk z myślnikiem, aby pomniejszyć; na zielone strzałki, aby przejść do map sąsiednich.


METAR-TAF: